sensor_id;sensor_type;location;lat;lon;timestamp;P1;durP1;ratioP1;P2;durP2;ratioP2
78646;SDS011;67961;43.460;3.762;2023-04-19T00:01:48;6.40;;;5.22;;
78646;SDS011;67961;43.460;3.762;2023-04-19T00:04:13;8.13;;;5.65;;
78646;SDS011;67961;43.460;3.762;2023-04-19T00:06:39;7.32;;;4.85;;
78646;SDS011;67961;43.460;3.762;2023-04-19T00:09:06;9.80;;;5.35;;
78646;SDS011;67961;43.460;3.762;2023-04-19T00:11:32;7.80;;;4.88;;
78646;SDS011;67961;43.460;3.762;2023-04-19T00:13:58;7.50;;;5.47;;
78646;SDS011;67961;43.460;3.762;2023-04-19T00:16:24;7.18;;;5.35;;
78646;SDS011;67961;43.460;3.762;2023-04-19T00:18:49;6.05;;;5.15;;
78646;SDS011;67961;43.460;3.762;2023-04-19T00:21:15;6.00;;;4.07;;
78646;SDS011;67961;43.460;3.762;2023-04-19T00:23:41;5.95;;;4.53;;
78646;SDS011;67961;43.460;3.762;2023-04-19T00:26:07;8.88;;;4.38;;
78646;SDS011;67961;43.460;3.762;2023-04-19T00:28:33;5.40;;;4.10;;
78646;SDS011;67961;43.460;3.762;2023-04-19T00:30:59;6.38;;;4.63;;
78646;SDS011;67961;43.460;3.762;2023-04-19T00:33:24;7.10;;;4.68;;
78646;SDS011;67961;43.460;3.762;2023-04-19T00:35:50;6.55;;;4.65;;
78646;SDS011;67961;43.460;3.762;2023-04-19T00:38:16;6.53;;;4.68;;
78646;SDS011;67961;43.460;3.762;2023-04-19T00:40:42;5.75;;;4.57;;
78646;SDS011;67961;43.460;3.762;2023-04-19T00:43:07;6.57;;;5.00;;
78646;SDS011;67961;43.460;3.762;2023-04-19T00:45:33;5.75;;;4.45;;
78646;SDS011;67961;43.460;3.762;2023-04-19T00:48:00;7.78;;;4.80;;
78646;SDS011;67961;43.460;3.762;2023-04-19T00:50:26;9.75;;;5.10;;
78646;SDS011;67961;43.460;3.762;2023-04-19T00:52:55;5.85;;;4.53;;
78646;SDS011;67961;43.460;3.762;2023-04-19T00:55:21;5.93;;;4.47;;
78646;SDS011;67961;43.460;3.762;2023-04-19T00:57:47;6.28;;;4.82;;
78646;SDS011;67961;43.460;3.762;2023-04-19T01:00:13;6.32;;;5.05;;
78646;SDS011;67961;43.460;3.762;2023-04-19T01:02:39;6.15;;;5.07;;
78646;SDS011;67961;43.460;3.762;2023-04-19T01:05:05;7.13;;;5.35;;
78646;SDS011;67961;43.460;3.762;2023-04-19T01:07:32;7.97;;;6.20;;
78646;SDS011;67961;43.460;3.762;2023-04-19T01:09:59;8.23;;;6.03;;
78646;SDS011;67961;43.460;3.762;2023-04-19T01:12:24;8.10;;;6.10;;
78646;SDS011;67961;43.460;3.762;2023-04-19T01:14:50;7.32;;;5.53;;
78646;SDS011;67961;43.460;3.762;2023-04-19T01:17:16;6.30;;;5.40;;
78646;SDS011;67961;43.460;3.762;2023-04-19T01:19:43;6.72;;;4.70;;
78646;SDS011;67961;43.460;3.762;2023-04-19T01:22:13;6.45;;;4.57;;
78646;SDS011;67961;43.460;3.762;2023-04-19T01:24:40;6.90;;;4.43;;
78646;SDS011;67961;43.460;3.762;2023-04-19T01:27:06;6.35;;;4.15;;
78646;SDS011;67961;43.460;3.762;2023-04-19T01:29:32;4.35;;;3.58;;
78646;SDS011;67961;43.460;3.762;2023-04-19T01:31:57;5.35;;;3.55;;
78646;SDS011;67961;43.460;3.762;2023-04-19T01:34:23;4.32;;;3.45;;
78646;SDS011;67961;43.460;3.762;2023-04-19T01:36:49;4.50;;;3.08;;
78646;SDS011;67961;43.460;3.762;2023-04-19T01:39:14;4.55;;;3.05;;
78646;SDS011;67961;43.460;3.762;2023-04-19T01:41:43;3.90;;;2.90;;
78646;SDS011;67961;43.460;3.762;2023-04-19T01:44:09;3.63;;;2.75;;
78646;SDS011;67961;43.460;3.762;2023-04-19T01:46:35;3.17;;;2.53;;
78646;SDS011;67961;43.460;3.762;2023-04-19T01:49:02;3.55;;;2.78;;
78646;SDS011;67961;43.460;3.762;2023-04-19T01:51:28;3.35;;;2.70;;
78646;SDS011;67961;43.460;3.762;2023-04-19T01:53:54;3.42;;;2.58;;
78646;SDS011;67961;43.460;3.762;2023-04-19T01:56:20;5.15;;;2.65;;
78646;SDS011;67961;43.460;3.762;2023-04-19T01:58:48;3.22;;;2.22;;
78646;SDS011;67961;43.460;3.762;2023-04-19T02:01:14;2.55;;;2.20;;
78646;SDS011;67961;43.460;3.762;2023-04-19T02:03:40;3.72;;;2.55;;
78646;SDS011;67961;43.460;3.762;2023-04-19T02:06:09;3.08;;;2.40;;
78646;SDS011;67961;43.460;3.762;2023-04-19T02:08:36;3.92;;;2.40;;
78646;SDS011;67961;43.460;3.762;2023-04-19T02:11:06;5.00;;;2.65;;
78646;SDS011;67961;43.460;3.762;2023-04-19T02:13:32;3.08;;;2.28;;
78646;SDS011;67961;43.460;3.762;2023-04-19T02:15:58;3.33;;;2.75;;
78646;SDS011;67961;43.460;3.762;2023-04-19T02:18:26;3.22;;;2.30;;
78646;SDS011;67961;43.460;3.762;2023-04-19T02:20:53;3.03;;;2.63;;
78646;SDS011;67961;43.460;3.762;2023-04-19T02:23:19;2.65;;;2.20;;
78646;SDS011;67961;43.460;3.762;2023-04-19T02:25:45;3.75;;;2.65;;
78646;SDS011;67961;43.460;3.762;2023-04-19T02:28:11;3.22;;;2.40;;
78646;SDS011;67961;43.460;3.762;2023-04-19T02:30:36;4.05;;;2.63;;
78646;SDS011;67961;43.460;3.762;2023-04-19T02:33:03;3.38;;;2.50;;
78646;SDS011;67961;43.460;3.762;2023-04-19T02:35:29;2.85;;;2.10;;
78646;SDS011;67961;43.460;3.762;2023-04-19T02:37:54;3.03;;;2.28;;
78646;SDS011;67961;43.460;3.762;2023-04-19T02:40:20;3.33;;;2.20;;
78646;SDS011;67961;43.460;3.762;2023-04-19T02:42:47;3.03;;;2.30;;
78646;SDS011;67961;43.460;3.762;2023-04-19T02:45:13;3.92;;;2.63;;
78646;SDS011;67961;43.460;3.762;2023-04-19T02:47:39;3.67;;;2.70;;
78646;SDS011;67961;43.460;3.762;2023-04-19T02:50:05;3.13;;;2.53;;
78646;SDS011;67961;43.460;3.762;2023-04-19T02:52:31;7.00;;;2.55;;
78646;SDS011;67961;43.460;3.762;2023-04-19T02:54:56;4.13;;;2.42;;
78646;SDS011;67961;43.460;3.762;2023-04-19T02:57:22;2.63;;;2.13;;
78646;SDS011;67961;43.460;3.762;2023-04-19T02:59:47;2.78;;;2.40;;
78646;SDS011;67961;43.460;3.762;2023-04-19T03:02:13;2.70;;;2.25;;
78646;SDS011;67961;43.460;3.762;2023-04-19T03:04:39;3.70;;;2.45;;
78646;SDS011;67961;43.460;3.762;2023-04-19T03:07:05;3.30;;;2.20;;
78646;SDS011;67961;43.460;3.762;2023-04-19T03:09:33;4.55;;;2.60;;
78646;SDS011;67961;43.460;3.762;2023-04-19T03:11:59;4.93;;;2.50;;
78646;SDS011;67961;43.460;3.762;2023-04-19T03:14:25;3.30;;;2.30;;
78646;SDS011;67961;43.460;3.762;2023-04-19T03:16:51;3.20;;;2.40;;
78646;SDS011;67961;43.460;3.762;2023-04-19T03:19:16;2.47;;;2.10;;
78646;SDS011;67961;43.460;3.762;2023-04-19T03:21:42;4.00;;;2.00;;
78646;SDS011;67961;43.460;3.762;2023-04-19T03:24:08;3.15;;;2.22;;
78646;SDS011;67961;43.460;3.762;2023-04-19T03:26:33;3.00;;;2.13;;
78646;SDS011;67961;43.460;3.762;2023-04-19T03:28:59;2.25;;;1.88;;
78646;SDS011;67961;43.460;3.762;2023-04-19T03:31:25;2.00;;;1.83;;
78646;SDS011;67961;43.460;3.762;2023-04-19T03:33:51;2.20;;;1.90;;
78646;SDS011;67961;43.460;3.762;2023-04-19T03:36:16;1.92;;;1.70;;
78646;SDS011;67961;43.460;3.762;2023-04-19T03:38:42;1.77;;;1.67;;
78646;SDS011;67961;43.460;3.762;2023-04-19T03:41:18;5.60;;;1.98;;
78646;SDS011;67961;43.460;3.762;2023-04-19T03:43:51;7.05;;;1.95;;
78646;SDS011;67961;43.460;3.762;2023-04-19T03:46:16;2.28;;;2.00;;
78646;SDS011;67961;43.460;3.762;2023-04-19T03:48:42;2.50;;;2.10;;
78646;SDS011;67961;43.460;3.762;2023-04-19T03:51:08;2.42;;;1.88;;
78646;SDS011;67961;43.460;3.762;2023-04-19T03:53:34;2.35;;;1.95;;
78646;SDS011;67961;43.460;3.762;2023-04-19T03:56:00;7.28;;;2.25;;
78646;SDS011;67961;43.460;3.762;2023-04-19T03:58:26;1.95;;;1.80;;
78646;SDS011;67961;43.460;3.762;2023-04-19T04:00:52;2.40;;;1.95;;
78646;SDS011;67961;43.460;3.762;2023-04-19T04:03:17;2.72;;;1.98;;
78646;SDS011;67961;43.460;3.762;2023-04-19T04:05:43;3.25;;;1.90;;
78646;SDS011;67961;43.460;3.762;2023-04-19T04:08:09;3.67;;;2.20;;
78646;SDS011;67961;43.460;3.762;2023-04-19T04:10:35;3.05;;;2.10;;
78646;SDS011;67961;43.460;3.762;2023-04-19T04:13:01;4.45;;;2.15;;
78646;SDS011;67961;43.460;3.762;2023-04-19T04:15:26;4.50;;;1.98;;
78646;SDS011;67961;43.460;3.762;2023-04-19T04:17:52;3.65;;;1.88;;
78646;SDS011;67961;43.460;3.762;2023-04-19T04:20:18;3.33;;;2.13;;
78646;SDS011;67961;43.460;3.762;2023-04-19T04:22:44;2.28;;;2.00;;
78646;SDS011;67961;43.460;3.762;2023-04-19T04:25:13;2.33;;;2.05;;
78646;SDS011;67961;43.460;3.762;2023-04-19T04:27:40;2.10;;;1.90;;
78646;SDS011;67961;43.460;3.762;2023-04-19T04:30:09;3.60;;;2.03;;
78646;SDS011;67961;43.460;3.762;2023-04-19T04:32:36;3.63;;;1.90;;
78646;SDS011;67961;43.460;3.762;2023-04-19T04:35:02;3.55;;;1.70;;
78646;SDS011;67961;43.460;3.762;2023-04-19T04:37:32;2.28;;;2.08;;
78646;SDS011;67961;43.460;3.762;2023-04-19T04:39:59;3.65;;;1.80;;
78646;SDS011;67961;43.460;3.762;2023-04-19T04:42:25;2.10;;;1.90;;
78646;SDS011;67961;43.460;3.762;2023-04-19T04:44:52;2.97;;;2.03;;
78646;SDS011;67961;43.460;3.762;2023-04-19T04:47:19;3.53;;;1.98;;
78646;SDS011;67961;43.460;3.762;2023-04-19T04:49:45;11.00;;;2.90;;
78646;SDS011;67961;43.460;3.762;2023-04-19T04:52:10;5.95;;;2.65;;
78646;SDS011;67961;43.460;3.762;2023-04-19T04:54:36;3.58;;;1.75;;
78646;SDS011;67961;43.460;3.762;2023-04-19T04:57:02;2.03;;;1.83;;
78646;SDS011;67961;43.460;3.762;2023-04-19T04:59:28;2.53;;;2.20;;
78646;SDS011;67961;43.460;3.762;2023-04-19T05:01:53;3.50;;;1.90;;
78646;SDS011;67961;43.460;3.762;2023-04-19T05:04:19;2.72;;;2.03;;
78646;SDS011;67961;43.460;3.762;2023-04-19T05:06:45;2.85;;;2.05;;
78646;SDS011;67961;43.460;3.762;2023-04-19T05:09:11;6.38;;;2.10;;
78646;SDS011;67961;43.460;3.762;2023-04-19T05:11:37;2.53;;;1.92;;
78646;SDS011;67961;43.460;3.762;2023-04-19T05:14:02;4.75;;;2.67;;
78646;SDS011;67961;43.460;3.762;2023-04-19T05:16:29;2.35;;;1.90;;
78646;SDS011;67961;43.460;3.762;2023-04-19T05:18:54;1.73;;;1.60;;
78646;SDS011;67961;43.460;3.762;2023-04-19T05:21:20;2.50;;;1.98;;
78646;SDS011;67961;43.460;3.762;2023-04-19T05:23:46;2.80;;;1.90;;
78646;SDS011;67961;43.460;3.762;2023-04-19T05:26:12;2.53;;;2.03;;
78646;SDS011;67961;43.460;3.762;2023-04-19T05:28:40;2.72;;;2.20;;
78646;SDS011;67961;43.460;3.762;2023-04-19T05:31:09;3.47;;;2.25;;
78646;SDS011;67961;43.460;3.762;2023-04-19T05:33:35;1.98;;;1.80;;
78646;SDS011;67961;43.460;3.762;2023-04-19T05:36:01;2.92;;;2.40;;
78646;SDS011;67961;43.460;3.762;2023-04-19T05:38:27;3.80;;;2.55;;
78646;SDS011;67961;43.460;3.762;2023-04-19T05:40:53;3.80;;;2.38;;
78646;SDS011;67961;43.460;3.762;2023-04-19T05:43:18;7.20;;;2.22;;
78646;SDS011;67961;43.460;3.762;2023-04-19T05:45:45;2.80;;;1.90;;
78646;SDS011;67961;43.460;3.762;2023-04-19T05:48:11;3.88;;;2.38;;
78646;SDS011;67961;43.460;3.762;2023-04-19T05:50:37;3.75;;;2.75;;
78646;SDS011;67961;43.460;3.762;2023-04-19T05:53:03;6.65;;;3.45;;
78646;SDS011;67961;43.460;3.762;2023-04-19T05:55:29;2.38;;;2.00;;
78646;SDS011;67961;43.460;3.762;2023-04-19T05:57:55;3.33;;;2.10;;
78646;SDS011;67961;43.460;3.762;2023-04-19T06:03:26;3.72;;;2.33;;
78646;SDS011;67961;43.460;3.762;2023-04-19T06:05:51;4.22;;;2.25;;
78646;SDS011;67961;43.460;3.762;2023-04-19T06:08:17;1.80;;;1.65;;
78646;SDS011;67961;43.460;3.762;2023-04-19T06:10:42;2.90;;;2.30;;
78646;SDS011;67961;43.460;3.762;2023-04-19T06:13:11;3.58;;;2.20;;
78646;SDS011;67961;43.460;3.762;2023-04-19T06:15:37;4.22;;;2.40;;
78646;SDS011;67961;43.460;3.762;2023-04-19T06:18:04;2.42;;;2.00;;
78646;SDS011;67961;43.460;3.762;2023-04-19T06:20:34;5.60;;;2.22;;
78646;SDS011;67961;43.460;3.762;2023-04-19T06:25:39;8.75;;;2.72;;
78646;SDS011;67961;43.460;3.762;2023-04-19T06:28:05;7.97;;;2.95;;
78646;SDS011;67961;43.460;3.762;2023-04-19T06:30:30;10.40;;;2.90;;
78646;SDS011;67961;43.460;3.762;2023-04-19T06:32:56;11.07;;;2.85;;
78646;SDS011;67961;43.460;3.762;2023-04-19T06:35:22;11.95;;;2.53;;
78646;SDS011;67961;43.460;3.762;2023-04-19T06:37:49;7.85;;;2.28;;
78646;SDS011;67961;43.460;3.762;2023-04-19T06:40:14;3.38;;;2.15;;
78646;SDS011;67961;43.460;3.762;2023-04-19T06:42:40;5.55;;;2.10;;
78646;SDS011;67961;43.460;3.762;2023-04-19T06:45:06;2.72;;;2.03;;
78646;SDS011;67961;43.460;3.762;2023-04-19T06:47:32;10.55;;;2.30;;
78646;SDS011;67961;43.460;3.762;2023-04-19T06:49:57;5.45;;;2.90;;
78646;SDS011;67961;43.460;3.762;2023-04-19T06:52:23;6.93;;;2.97;;
78646;SDS011;67961;43.460;3.762;2023-04-19T06:54:49;5.93;;;2.47;;
78646;SDS011;67961;43.460;3.762;2023-04-19T06:57:15;2.95;;;2.10;;
78646;SDS011;67961;43.460;3.762;2023-04-19T06:59:41;3.88;;;2.83;;
78646;SDS011;67961;43.460;3.762;2023-04-19T07:02:07;5.65;;;2.33;;
78646;SDS011;67961;43.460;3.762;2023-04-19T07:04:33;3.72;;;2.63;;
78646;SDS011;67961;43.460;3.762;2023-04-19T07:06:59;10.40;;;2.60;;
78646;SDS011;67961;43.460;3.762;2023-04-19T07:09:25;6.72;;;2.05;;
78646;SDS011;67961;43.460;3.762;2023-04-19T07:11:50;6.57;;;2.90;;
78646;SDS011;67961;43.460;3.762;2023-04-19T07:14:16;9.73;;;3.13;;
78646;SDS011;67961;43.460;3.762;2023-04-19T07:16:45;5.72;;;2.70;;
78646;SDS011;67961;43.460;3.762;2023-04-19T07:19:11;12.18;;;2.53;;
78646;SDS011;67961;43.460;3.762;2023-04-19T07:21:37;3.85;;;2.28;;
78646;SDS011;67961;43.460;3.762;2023-04-19T07:24:04;3.92;;;2.17;;
78646;SDS011;67961;43.460;3.762;2023-04-19T07:26:30;5.80;;;1.90;;
78646;SDS011;67961;43.460;3.762;2023-04-19T07:28:56;3.40;;;2.08;;
78646;SDS011;67961;43.460;3.762;2023-04-19T07:31:22;3.05;;;1.95;;
78646;SDS011;67961;43.460;3.762;2023-04-19T07:33:51;3.65;;;2.70;;
78646;SDS011;67961;43.460;3.762;2023-04-19T07:36:17;4.85;;;2.67;;
78646;SDS011;67961;43.460;3.762;2023-04-19T07:38:46;3.22;;;2.38;;
78646;SDS011;67961;43.460;3.762;2023-04-19T07:41:11;4.18;;;2.63;;
78646;SDS011;67961;43.460;3.762;2023-04-19T07:43:37;4.82;;;2.92;;
78646;SDS011;67961;43.460;3.762;2023-04-19T07:46:09;6.35;;;2.90;;
78646;SDS011;67961;43.460;3.762;2023-04-19T07:48:37;3.60;;;2.78;;
78646;SDS011;67961;43.460;3.762;2023-04-19T07:51:09;6.32;;;3.40;;
78646;SDS011;67961;43.460;3.762;2023-04-19T07:53:36;7.68;;;2.83;;
78646;SDS011;67961;43.460;3.762;2023-04-19T07:56:04;4.15;;;2.70;;
78646;SDS011;67961;43.460;3.762;2023-04-19T07:58:31;5.13;;;2.67;;
78646;SDS011;67961;43.460;3.762;2023-04-19T08:00:56;8.02;;;2.50;;
78646;SDS011;67961;43.460;3.762;2023-04-19T08:03:40;5.72;;;2.90;;
78646;SDS011;67961;43.460;3.762;2023-04-19T08:06:06;7.93;;;2.35;;
78646;SDS011;67961;43.460;3.762;2023-04-19T08:08:33;3.88;;;2.60;;
78646;SDS011;67961;43.460;3.762;2023-04-19T08:10:59;4.13;;;2.30;;
78646;SDS011;67961;43.460;3.762;2023-04-19T08:13:26;5.47;;;2.75;;
78646;SDS011;67961;43.460;3.762;2023-04-19T08:15:52;6.90;;;3.42;;
78646;SDS011;67961;43.460;3.762;2023-04-19T08:18:18;4.15;;;2.70;;
78646;SDS011;67961;43.460;3.762;2023-04-19T08:20:45;7.18;;;2.45;;
78646;SDS011;67961;43.460;3.762;2023-04-19T08:23:11;4.07;;;2.60;;
78646;SDS011;67961;43.460;3.762;2023-04-19T08:25:36;5.75;;;2.80;;
78646;SDS011;67961;43.460;3.762;2023-04-19T08:28:02;6.68;;;2.70;;
78646;SDS011;67961;43.460;3.762;2023-04-19T08:30:29;7.70;;;2.65;;
78646;SDS011;67961;43.460;3.762;2023-04-19T08:32:54;3.97;;;2.63;;
78646;SDS011;67961;43.460;3.762;2023-04-19T08:35:20;4.28;;;2.67;;
78646;SDS011;67961;43.460;3.762;2023-04-19T08:37:47;3.95;;;2.67;;
78646;SDS011;67961;43.460;3.762;2023-04-19T08:40:13;2.65;;;2.40;;
78646;SDS011;67961;43.460;3.762;2023-04-19T08:42:41;3.90;;;2.53;;
78646;SDS011;67961;43.460;3.762;2023-04-19T08:45:09;8.43;;;2.80;;
78646;SDS011;67961;43.460;3.762;2023-04-19T08:47:37;3.72;;;2.38;;
78646;SDS011;67961;43.460;3.762;2023-04-19T08:50:05;3.10;;;1.90;;
78646;SDS011;67961;43.460;3.762;2023-04-19T08:52:35;5.40;;;2.20;;
78646;SDS011;67961;43.460;3.762;2023-04-19T08:55:04;2.78;;;2.08;;
78646;SDS011;67961;43.460;3.762;2023-04-19T08:57:32;3.75;;;2.20;;
78646;SDS011;67961;43.460;3.762;2023-04-19T08:59:59;3.85;;;2.05;;
78646;SDS011;67961;43.460;3.762;2023-04-19T09:02:25;3.83;;;1.98;;
78646;SDS011;67961;43.460;3.762;2023-04-19T09:04:51;3.63;;;2.10;;
78646;SDS011;67961;43.460;3.762;2023-04-19T09:07:23;4.47;;;2.13;;
78646;SDS011;67961;43.460;3.762;2023-04-19T09:10:03;4.35;;;2.40;;
78646;SDS011;67961;43.460;3.762;2023-04-19T09:12:30;3.00;;;2.40;;
78646;SDS011;67961;43.460;3.762;2023-04-19T09:14:56;4.63;;;2.20;;
78646;SDS011;67961;43.460;3.762;2023-04-19T09:17:21;5.15;;;2.20;;
78646;SDS011;67961;43.460;3.762;2023-04-19T09:19:47;4.15;;;2.55;;
78646;SDS011;67961;43.460;3.762;2023-04-19T09:22:14;3.40;;;2.40;;
78646;SDS011;67961;43.460;3.762;2023-04-19T09:24:39;2.88;;;2.25;;
78646;SDS011;67961;43.460;3.762;2023-04-19T09:27:05;3.90;;;2.40;;
78646;SDS011;67961;43.460;3.762;2023-04-19T09:29:31;4.07;;;2.20;;
78646;SDS011;67961;43.460;3.762;2023-04-19T09:31:57;4.47;;;2.00;;
78646;SDS011;67961;43.460;3.762;2023-04-19T09:34:23;4.88;;;2.08;;
78646;SDS011;67961;43.460;3.762;2023-04-19T09:36:49;3.25;;;2.08;;
78646;SDS011;67961;43.460;3.762;2023-04-19T09:39:29;7.05;;;2.35;;
78646;SDS011;67961;43.460;3.762;2023-04-19T09:41:56;6.28;;;2.88;;
78646;SDS011;67961;43.460;3.762;2023-04-19T09:44:22;3.90;;;2.53;;
78646;SDS011;67961;43.460;3.762;2023-04-19T09:46:48;5.15;;;2.50;;
78646;SDS011;67961;43.460;3.762;2023-04-19T09:51:54;6.05;;;4.03;;
78646;SDS011;67961;43.460;3.762;2023-04-19T09:54:21;7.53;;;3.15;;
78646;SDS011;67961;43.460;3.762;2023-04-19T09:56:48;5.07;;;2.95;;
78646;SDS011;67961;43.460;3.762;2023-04-19T09:59:14;7.10;;;2.70;;
78646;SDS011;67961;43.460;3.762;2023-04-19T10:01:44;4.35;;;3.00;;
78646;SDS011;67961;43.460;3.762;2023-04-19T10:04:12;8.77;;;2.95;;
78646;SDS011;67961;43.460;3.762;2023-04-19T10:06:45;5.03;;;2.90;;
78646;SDS011;67961;43.460;3.762;2023-04-19T10:09:14;3.92;;;2.45;;
78646;SDS011;67961;43.460;3.762;2023-04-19T10:11:40;4.05;;;2.50;;
78646;SDS011;67961;43.460;3.762;2023-04-19T10:14:10;3.53;;;2.70;;
78646;SDS011;67961;43.460;3.762;2023-04-19T10:16:37;6.65;;;2.50;;
78646;SDS011;67961;43.460;3.762;2023-04-19T10:19:03;3.78;;;2.40;;
78646;SDS011;67961;43.460;3.762;2023-04-19T10:21:32;3.63;;;2.40;;
78646;SDS011;67961;43.460;3.762;2023-04-19T10:23:58;2.10;;;1.90;;
78646;SDS011;67961;43.460;3.762;2023-04-19T10:26:27;3.38;;;2.10;;
78646;SDS011;67961;43.460;3.762;2023-04-19T10:28:53;3.55;;;2.60;;
78646;SDS011;67961;43.460;3.762;2023-04-19T10:31:21;2.85;;;2.28;;
78646;SDS011;67961;43.460;3.762;2023-04-19T10:33:49;3.05;;;2.40;;
78646;SDS011;67961;43.460;3.762;2023-04-19T10:36:19;5.53;;;2.95;;
78646;SDS011;67961;43.460;3.762;2023-04-19T10:38:45;8.20;;;3.15;;
78646;SDS011;67961;43.460;3.762;2023-04-19T10:41:13;5.32;;;2.67;;
78646;SDS011;67961;43.460;3.762;2023-04-19T10:43:42;2.85;;;2.38;;
78646;SDS011;67961;43.460;3.762;2023-04-19T10:51:25;3.10;;;2.10;;
78646;SDS011;67961;43.460;3.762;2023-04-19T10:54:08;7.68;;;2.05;;
78646;SDS011;67961;43.460;3.762;2023-04-19T10:56:56;3.53;;;2.30;;
78646;SDS011;67961;43.460;3.762;2023-04-19T10:59:24;3.72;;;2.15;;
78646;SDS011;67961;43.460;3.762;2023-04-19T11:01:54;3.50;;;1.85;;
78646;SDS011;67961;43.460;3.762;2023-04-19T11:14:29;18.15;;;12.23;;
78646;SDS011;67961;43.460;3.762;2023-04-19T11:16:58;7.07;;;3.50;;
78646;SDS011;67961;43.460;3.762;2023-04-19T11:19:24;4.47;;;2.35;;
78646;SDS011;67961;43.460;3.762;2023-04-19T11:21:50;4.88;;;2.28;;
78646;SDS011;67961;43.460;3.762;2023-04-19T11:24:16;3.15;;;2.17;;
78646;SDS011;67961;43.460;3.762;2023-04-19T11:26:45;3.67;;;2.65;;
78646;SDS011;67961;43.460;3.762;2023-04-19T11:29:12;5.32;;;2.35;;
78646;SDS011;67961;43.460;3.762;2023-04-19T11:31:37;7.38;;;3.47;;
78646;SDS011;67961;43.460;3.762;2023-04-19T11:34:03;2.50;;;2.28;;
78646;SDS011;67961;43.460;3.762;2023-04-19T11:36:32;2.97;;;2.00;;
78646;SDS011;67961;43.460;3.762;2023-04-19T11:39:00;3.13;;;2.22;;
78646;SDS011;67961;43.460;3.762;2023-04-19T11:41:29;2.55;;;2.00;;
78646;SDS011;67961;43.460;3.762;2023-04-19T11:44:00;2.05;;;1.90;;
78646;SDS011;67961;43.460;3.762;2023-04-19T11:46:26;5.38;;;2.50;;
78646;SDS011;67961;43.460;3.762;2023-04-19T11:48:52;10.25;;;4.18;;
78646;SDS011;67961;43.460;3.762;2023-04-19T11:51:18;4.50;;;2.28;;
78646;SDS011;67961;43.460;3.762;2023-04-19T11:53:44;4.03;;;2.60;;
78646;SDS011;67961;43.460;3.762;2023-04-19T11:56:10;2.50;;;1.90;;
78646;SDS011;67961;43.460;3.762;2023-04-19T12:01:10;6.95;;;2.50;;
78646;SDS011;67961;43.460;3.762;2023-04-19T12:03:46;4.45;;;2.13;;
78646;SDS011;67961;43.460;3.762;2023-04-19T12:06:15;2.78;;;2.08;;
78646;SDS011;67961;43.460;3.762;2023-04-19T12:08:51;5.72;;;2.50;;
78646;SDS011;67961;43.460;3.762;2023-04-19T12:11:19;3.20;;;1.92;;
78646;SDS011;67961;43.460;3.762;2023-04-19T12:13:47;5.00;;;2.33;;
78646;SDS011;67961;43.460;3.762;2023-04-19T12:16:13;2.65;;;2.28;;
78646;SDS011;67961;43.460;3.762;2023-04-19T12:18:48;3.67;;;2.60;;
78646;SDS011;67961;43.460;3.762;2023-04-19T12:23:59;2.38;;;1.90;;
78646;SDS011;67961;43.460;3.762;2023-04-19T12:26:26;3.75;;;2.10;;
78646;SDS011;67961;43.460;3.762;2023-04-19T12:28:53;5.00;;;2.22;;
78646;SDS011;67961;43.460;3.762;2023-04-19T12:31:19;4.95;;;1.92;;
78646;SDS011;67961;43.460;3.762;2023-04-19T12:33:45;2.85;;;1.80;;
78646;SDS011;67961;43.460;3.762;2023-04-19T12:36:11;4.35;;;2.42;;
78646;SDS011;67961;43.460;3.762;2023-04-19T12:38:37;6.05;;;2.40;;
78646;SDS011;67961;43.460;3.762;2023-04-19T12:41:02;3.58;;;1.90;;
78646;SDS011;67961;43.460;3.762;2023-04-19T12:43:28;4.80;;;2.58;;
78646;SDS011;67961;43.460;3.762;2023-04-19T12:45:57;2.40;;;1.90;;
78646;SDS011;67961;43.460;3.762;2023-04-19T12:48:24;5.63;;;2.15;;
78646;SDS011;67961;43.460;3.762;2023-04-19T12:50:50;4.72;;;1.80;;
78646;SDS011;67961;43.460;3.762;2023-04-19T12:53:16;4.05;;;2.10;;
78646;SDS011;67961;43.460;3.762;2023-04-19T12:55:41;4.28;;;2.20;;
78646;SDS011;67961;43.460;3.762;2023-04-19T12:58:12;2.95;;;1.95;;
78646;SDS011;67961;43.460;3.762;2023-04-19T13:00:38;4.50;;;2.20;;
78646;SDS011;67961;43.460;3.762;2023-04-19T13:03:03;2.67;;;2.00;;
78646;SDS011;67961;43.460;3.762;2023-04-19T13:05:29;3.72;;;2.47;;
78646;SDS011;67961;43.460;3.762;2023-04-19T13:07:54;7.50;;;3.28;;
78646;SDS011;67961;43.460;3.762;2023-04-19T13:10:20;6.18;;;2.58;;
78646;SDS011;67961;43.460;3.762;2023-04-19T13:12:46;4.22;;;2.88;;
78646;SDS011;67961;43.460;3.762;2023-04-19T13:15:12;4.32;;;2.50;;
78646;SDS011;67961;43.460;3.762;2023-04-19T13:17:37;2.20;;;2.00;;
78646;SDS011;67961;43.460;3.762;2023-04-19T13:20:03;3.40;;;2.13;;
78646;SDS011;67961;43.460;3.762;2023-04-19T13:22:30;4.63;;;2.30;;
78646;SDS011;67961;43.460;3.762;2023-04-19T13:24:56;4.22;;;2.38;;
78646;SDS011;67961;43.460;3.762;2023-04-19T13:27:22;3.63;;;2.50;;
78646;SDS011;67961;43.460;3.762;2023-04-19T13:29:48;4.65;;;2.33;;
78646;SDS011;67961;43.460;3.762;2023-04-19T13:32:13;3.40;;;2.40;;
78646;SDS011;67961;43.460;3.762;2023-04-19T13:34:39;3.38;;;2.22;;
78646;SDS011;67961;43.460;3.762;2023-04-19T13:37:05;4.03;;;2.67;;
78646;SDS011;67961;43.460;3.762;2023-04-19T13:39:35;3.78;;;2.40;;
78646;SDS011;67961;43.460;3.762;2023-04-19T13:42:01;4.72;;;2.72;;
78646;SDS011;67961;43.460;3.762;2023-04-19T13:44:27;3.13;;;2.20;;
78646;SDS011;67961;43.460;3.762;2023-04-19T13:46:53;2.65;;;2.03;;
78646;SDS011;67961;43.460;3.762;2023-04-19T13:49:18;5.95;;;2.45;;
78646;SDS011;67961;43.460;3.762;2023-04-19T13:51:44;3.17;;;2.30;;
78646;SDS011;67961;43.460;3.762;2023-04-19T13:54:10;4.22;;;2.13;;
78646;SDS011;67961;43.460;3.762;2023-04-19T13:56:36;2.47;;;2.10;;
78646;SDS011;67961;43.460;3.762;2023-04-19T13:59:01;4.45;;;2.60;;
78646;SDS011;67961;43.460;3.762;2023-04-19T14:01:27;2.60;;;2.10;;
78646;SDS011;67961;43.460;3.762;2023-04-19T14:03:53;3.78;;;2.30;;
78646;SDS011;67961;43.460;3.762;2023-04-19T14:06:18;4.55;;;2.33;;
78646;SDS011;67961;43.460;3.762;2023-04-19T14:08:44;5.00;;;2.42;;
78646;SDS011;67961;43.460;3.762;2023-04-19T14:11:10;2.90;;;2.10;;
78646;SDS011;67961;43.460;3.762;2023-04-19T14:13:36;4.68;;;2.28;;
78646;SDS011;67961;43.460;3.762;2023-04-19T14:16:02;5.05;;;2.40;;
78646;SDS011;67961;43.460;3.762;2023-04-19T14:18:28;5.90;;;2.50;;
78646;SDS011;67961;43.460;3.762;2023-04-19T14:20:54;5.55;;;2.83;;
78646;SDS011;67961;43.460;3.762;2023-04-19T14:23:20;7.10;;;2.80;;
78646;SDS011;67961;43.460;3.762;2023-04-19T14:25:46;6.70;;;3.28;;
78646;SDS011;67961;43.460;3.762;2023-04-19T14:28:11;5.45;;;2.85;;
78646;SDS011;67961;43.460;3.762;2023-04-19T14:30:38;7.88;;;3.03;;
78646;SDS011;67961;43.460;3.762;2023-04-19T14:33:03;9.20;;;2.65;;
78646;SDS011;67961;43.460;3.762;2023-04-19T14:35:30;7.20;;;2.65;;
78646;SDS011;67961;43.460;3.762;2023-04-19T14:37:55;7.65;;;2.70;;
78646;SDS011;67961;43.460;3.762;2023-04-19T14:40:21;5.07;;;2.40;;
78646;SDS011;67961;43.460;3.762;2023-04-19T14:42:47;4.93;;;2.53;;
78646;SDS011;67961;43.460;3.762;2023-04-19T14:45:13;6.25;;;2.92;;
78646;SDS011;67961;43.460;3.762;2023-04-19T14:47:38;8.70;;;2.70;;
78646;SDS011;67961;43.460;3.762;2023-04-19T14:50:04;17.77;;;3.25;;
78646;SDS011;67961;43.460;3.762;2023-04-19T14:52:31;3.90;;;2.35;;
78646;SDS011;67961;43.460;3.762;2023-04-19T14:54:56;6.10;;;2.47;;
78646;SDS011;67961;43.460;3.762;2023-04-19T14:57:23;6.22;;;2.50;;
78646;SDS011;67961;43.460;3.762;2023-04-19T14:59:53;5.47;;;2.50;;
78646;SDS011;67961;43.460;3.762;2023-04-19T15:02:22;5.97;;;2.45;;
78646;SDS011;67961;43.460;3.762;2023-04-19T15:04:48;4.50;;;2.33;;
78646;SDS011;67961;43.460;3.762;2023-04-19T15:07:14;3.30;;;2.00;;
78646;SDS011;67961;43.460;3.762;2023-04-19T15:09:40;4.78;;;2.25;;
78646;SDS011;67961;43.460;3.762;2023-04-19T15:12:05;5.63;;;2.38;;
78646;SDS011;67961;43.460;3.762;2023-04-19T15:14:31;5.47;;;2.58;;